Time;durP1;ratioP1;P1;durP2;ratioP2;P2;SDS_P1;SDS_P2;PMS_P1;PMS_P2;Temp;Humidity;BMP_temperature;BMP_pressure;BME280_temperature;BME280_humidity;BME280_pressure;Samples;Min_cycle;Max_cycle;Signal;HPM_P1;HPM_P2
2023/07/17 00:00:56;;;;;;;16.20;13.88;;;;;;;;;;5047037;28;20648;-65
2023/07/17 00:03:22;;;;;;;14.18;12.80;;;;;;;;;;5047806;28;20238;-64
2023/07/17 00:05:51;;;;;;;18.65;12.50;;;;;;;;;;5046920;28;20648;-64
2023/07/17 00:08:17;;;;;;;16.80;15.13;;;;;;;;;;5047719;28;20672;-64
2023/07/17 00:10:44;;;;;;;16.38;12.35;;;;;;;;;;5047272;28;20229;-63
2023/07/17 00:13:10;;;;;;;12.93;11.82;;;;;;;;;;5047076;28;20242;-63
2023/07/17 00:15:37;;;;;;;14.15;12.73;;;;;;;;;;5047357;28;20207;-64
2023/07/17 00:18:03;;;;;;;16.98;14.82;;;;;;;;;;5046305;28;20250;-64
2023/07/17 00:20:30;;;;;;;17.23;13.77;;;;;;;;;;5045011;28;20206;-64
2023/07/17 00:22:58;;;;;;;13.85;11.88;;;;;;;;;;5045958;28;20306;-64
2023/07/17 00:25:25;;;;;;;11.90;10.82;;;;;;;;;;5044776;28;20194;-63
2023/07/17 00:27:51;;;;;;;12.30;11.13;;;;;;;;;;5044722;28;20677;-64
2023/07/17 00:30:18;;;;;;;13.52;12.23;;;;;;;;;;5044969;28;20663;-64
2023/07/17 00:32:44;;;;;;;12.27;11.00;;;;;;;;;;5045509;28;20219;-64
2023/07/17 00:35:11;;;;;;;16.38;11.18;;;;;;;;;;5045810;28;20195;-64
2023/07/17 00:37:37;;;;;;;12.88;11.70;;;;;;;;;;5045860;28;20290;-65
2023/07/17 00:40:07;;;;;;;12.90;11.75;;;;;;;;;;5044944;28;20265;-64
2023/07/17 00:42:33;;;;;;;12.45;11.40;;;;;;;;;;5045162;28;20242;-64
2023/07/17 00:45:00;;;;;;;11.15;10.25;;;;;;;;;;5044987;28;20257;-64
2023/07/17 00:47:26;;;;;;;10.90;9.77;;;;;;;;;;5044819;28;20793;-65
2023/07/17 00:49:53;;;;;;;17.05;10.75;;;;;;;;;;5044431;28;20249;-64
2023/07/17 00:52:20;;;;;;;13.27;10.70;;;;;;;;;;5044892;28;20638;-63
2023/07/17 00:54:46;;;;;;;10.80;9.75;;;;;;;;;;5046373;28;20199;-64
2023/07/17 00:57:16;;;;;;;10.18;9.13;;;;;;;;;;5046652;28;20607;-63
2023/07/17 00:59:43;;;;;;;9.93;9.07;;;;;;;;;;5046320;28;20203;-64
2023/07/17 01:02:10;;;;;;;9.73;8.82;;;;;;;;;;5044270;28;20203;-63
2023/07/17 01:04:37;;;;;;;8.77;8.05;;;;;;;;;;5046664;28;20202;-64
2023/07/17 01:07:04;;;;;;;8.57;7.80;;;;;;;;;;5045468;28;20213;-63
2023/07/17 01:09:31;;;;;;;11.55;8.45;;;;;;;;;;5046306;28;20258;-63
2023/07/17 01:11:57;;;;;;;8.82;7.63;;;;;;;;;;5045347;28;20225;-62
2023/07/17 01:14:25;;;;;;;8.20;7.70;;;;;;;;;;5046307;28;20697;-63
2023/07/17 01:16:52;;;;;;;8.27;7.65;;;;;;;;;;5046273;28;20769;-63
2023/07/17 01:19:18;;;;;;;10.18;7.15;;;;;;;;;;5044710;28;20692;-65
2023/07/17 01:21:46;;;;;;;8.20;7.55;;;;;;;;;;5045108;28;20305;-63
2023/07/17 01:24:14;;;;;;;9.25;8.35;;;;;;;;;;5046431;28;20203;-63
2023/07/17 01:26:41;;;;;;;7.95;7.22;;;;;;;;;;5045699;28;20215;-63
2023/07/17 01:29:07;;;;;;;8.43;7.72;;;;;;;;;;5046816;28;20696;-64
2023/07/17 01:31:34;;;;;;;7.68;6.75;;;;;;;;;;5045420;28;20599;-63
2023/07/17 01:34:00;;;;;;;7.28;6.68;;;;;;;;;;5046536;28;20287;-63
2023/07/17 01:36:27;;;;;;;7.95;7.35;;;;;;;;;;5045582;28;20198;-63
2023/07/17 01:38:54;;;;;;;11.02;6.72;;;;;;;;;;5045880;28;20195;-62
2023/07/17 01:41:22;;;;;;;8.00;6.38;;;;;;;;;;5046040;28;20205;-63
2023/07/17 01:43:48;;;;;;;12.85;6.80;;;;;;;;;;5045974;28;20631;-63
2023/07/17 01:46:15;;;;;;;7.63;6.93;;;;;;;;;;5046043;28;20242;-64
2023/07/17 01:48:41;;;;;;;6.93;6.32;;;;;;;;;;5045538;28;20684;-63
2023/07/17 01:51:07;;;;;;;8.10;7.38;;;;;;;;;;5045065;28;20230;-63
2023/07/17 01:53:34;;;;;;;8.27;7.57;;;;;;;;;;5045483;28;20263;-64
2023/07/17 01:56:01;;;;;;;7.90;6.88;;;;;;;;;;5046047;28;20252;-63
2023/07/17 01:58:29;;;;;;;7.05;6.63;;;;;;;;;;5046330;28;20207;-62
2023/07/17 02:00:55;;;;;;;8.32;6.03;;;;;;;;;;5044970;28;20290;-64
2023/07/17 02:03:22;;;;;;;6.32;5.90;;;;;;;;;;5045396;28;20639;-64
2023/07/17 02:05:50;;;;;;;7.43;6.90;;;;;;;;;;5045675;28;20264;-64
2023/07/17 02:08:16;;;;;;;6.28;5.68;;;;;;;;;;5046329;28;20264;-64
2023/07/17 02:10:43;;;;;;;6.70;6.18;;;;;;;;;;5045753;28;20203;-63
2023/07/17 02:13:09;;;;;;;7.70;7.00;;;;;;;;;;5045347;28;20222;-64
2023/07/17 02:15:37;;;;;;;7.60;6.20;;;;;;;;;;5048190;28;20348;-64
2023/07/17 02:18:04;;;;;;;7.70;7.00;;;;;;;;;;5047818;28;20680;-63
2023/07/17 02:20:30;;;;;;;7.00;6.50;;;;;;;;;;5047184;28;20280;-64
2023/07/17 02:22:57;;;;;;;7.30;6.60;;;;;;;;;;5048836;28;20227;-64
2023/07/17 02:25:23;;;;;;;7.88;7.22;;;;;;;;;;5047535;28;20881;-65
2023/07/17 02:27:50;;;;;;;9.02;6.03;;;;;;;;;;5049107;28;20199;-63
2023/07/17 02:30:16;;;;;;;6.82;6.30;;;;;;;;;;5048407;28;20207;-63
2023/07/17 02:32:44;;;;;;;6.85;6.03;;;;;;;;;;5049325;28;20798;-64
2023/07/17 02:35:10;;;;;;;7.53;6.88;;;;;;;;;;5048994;28;20207;-62
2023/07/17 02:37:37;;;;;;;9.88;7.05;;;;;;;;;;5047766;28;20655;-63
2023/07/17 02:40:10;;;;;;;8.40;6.68;;;;;;;;;;5046546;28;20260;-63
2023/07/17 02:42:36;;;;;;;7.40;5.90;;;;;;;;;;5046808;28;20238;-64
2023/07/17 02:45:03;;;;;;;9.75;6.63;;;;;;;;;;5047406;28;20195;-63
2023/07/17 02:47:30;;;;;;;6.22;5.72;;;;;;;;;;5047466;28;20230;-64
2023/07/17 02:49:57;;;;;;;6.78;6.18;;;;;;;;;;5046833;28;20231;-64
2023/07/17 02:52:24;;;;;;;8.02;6.32;;;;;;;;;;5047838;28;20704;-63
2023/07/17 02:54:50;;;;;;;6.97;6.47;;;;;;;;;;5048516;28;20650;-63
2023/07/17 02:57:17;;;;;;;7.63;5.75;;;;;;;;;;5048448;28;20249;-64
2023/07/17 02:59:43;;;;;;;7.90;7.13;;;;;;;;;;5048269;28;20277;-63
2023/07/17 03:02:09;;;;;;;7.18;6.47;;;;;;;;;;5048664;28;20231;-63
2023/07/17 03:04:36;;;;;;;9.70;7.07;;;;;;;;;;5048809;28;20202;-63
2023/07/17 03:07:05;;;;;;;8.23;7.57;;;;;;;;;;5049275;28;20195;-64
2023/07/17 03:09:31;;;;;;;10.85;7.97;;;;;;;;;;5049248;28;20207;-63
2023/07/17 03:11:58;;;;;;;8.73;8.13;;;;;;;;;;5048430;28;20290;-63
2023/07/17 03:14:24;;;;;;;10.60;9.57;;;;;;;;;;5046924;28;20253;-65
2023/07/17 03:16:50;;;;;;;11.50;10.38;;;;;;;;;;5048439;28;20218;-63
2023/07/17 03:19:17;;;;;;;11.15;10.25;;;;;;;;;;5048161;28;20714;-63
2023/07/17 03:21:43;;;;;;;13.35;10.75;;;;;;;;;;5048157;28;20276;-63
2023/07/17 03:24:11;;;;;;;11.82;10.85;;;;;;;;;;5047648;28;20195;-62
2023/07/17 03:26:38;;;;;;;13.65;12.23;;;;;;;;;;5047611;28;20231;-63
2023/07/17 03:29:04;;;;;;;14.65;12.85;;;;;;;;;;5048237;28;20669;-63
2023/07/17 03:31:31;;;;;;;13.35;11.95;;;;;;;;;;5048222;28;20214;-63
2023/07/17 03:33:57;;;;;;;13.30;12.23;;;;;;;;;;5047364;28;20226;-63
2023/07/17 03:36:24;;;;;;;14.05;12.88;;;;;;;;;;5048640;28;20239;-64
2023/07/17 03:38:50;;;;;;;14.48;12.43;;;;;;;;;;5048580;28;20297;-63
2023/07/17 03:41:20;;;;;;;12.13;10.95;;;;;;;;;;5048843;28;20260;-63
2023/07/17 03:43:46;;;;;;;13.15;10.77;;;;;;;;;;5046734;28;20199;-63
2023/07/17 03:46:13;;;;;;;11.65;10.52;;;;;;;;;;5048233;28;20245;-63
2023/07/17 03:48:40;;;;;;;15.77;9.90;;;;;;;;;;5047343;28;20230;-64
2023/07/17 03:51:06;;;;;;;11.98;10.38;;;;;;;;;;5047935;28;20235;-66
2023/07/17 03:53:33;;;;;;;18.95;17.02;;;;;;;;;;5047791;28;20222;-63
2023/07/17 03:55:59;;;;;;;11.68;10.55;;;;;;;;;;5047878;28;20207;-63
2023/07/17 03:58:27;;;;;;;11.25;9.80;;;;;;;;;;5047586;28;20285;-64
2023/07/17 04:00:54;;;;;;;10.15;9.05;;;;;;;;;;5047722;28;20207;-65
2023/07/17 04:03:20;;;;;;;14.95;10.32;;;;;;;;;;5047673;28;20230;-64
2023/07/17 04:05:47;;;;;;;13.82;9.38;;;;;;;;;;5047892;28;20195;-63
2023/07/17 04:08:13;;;;;;;10.70;9.85;;;;;;;;;;5047950;28;20294;-64
2023/07/17 04:10:40;;;;;;;11.57;10.35;;;;;;;;;;5047515;28;20211;-63
2023/07/17 04:13:06;;;;;;;12.23;11.13;;;;;;;;;;5047331;28;20734;-63
2023/07/17 04:15:35;;;;;;;17.02;11.65;;;;;;;;;;5047636;28;20230;-63
2023/07/17 04:18:02;;;;;;;16.58;15.05;;;;;;;;;;5045619;28;20230;-63
2023/07/17 04:20:28;;;;;;;24.75;19.95;;;;;;;;;;5046004;28;20260;-63
2023/07/17 04:22:55;;;;;;;13.27;12.18;;;;;;;;;;5045905;28;20286;-63
2023/07/17 04:25:21;;;;;;;13.43;11.75;;;;;;;;;;5045000;28;20746;-64
2023/07/17 04:27:47;;;;;;;13.00;11.43;;;;;;;;;;5045131;28;20226;-64
2023/07/17 04:30:14;;;;;;;13.43;12.43;;;;;;;;;;5046114;28;20268;-63
2023/07/17 04:32:42;;;;;;;14.43;12.98;;;;;;;;;;5045839;28;20230;-63
2023/07/17 04:35:09;;;;;;;16.92;15.35;;;;;;;;;;5045113;28;20341;-63
2023/07/17 04:37:35;;;;;;;16.48;14.93;;;;;;;;;;5044882;28;20203;-63
2023/07/17 04:40:01;;;;;;;11.05;10.10;;;;;;;;;;5045170;28;20195;-64
2023/07/17 04:42:28;;;;;;;11.32;10.20;;;;;;;;;;5045675;28;20231;-63
2023/07/17 04:44:54;;;;;;;10.50;9.68;;;;;;;;;;5044929;28;20288;-64
2023/07/17 04:47:21;;;;;;;14.50;9.68;;;;;;;;;;5045148;28;20199;-64
2023/07/17 04:49:49;;;;;;;15.55;13.75;;;;;;;;;;5045047;28;20261;-66
2023/07/17 04:52:15;;;;;;;30.20;27.13;;;;;;;;;;5046631;28;20219;-63
2023/07/17 04:54:42;;;;;;;26.55;20.58;;;;;;;;;;5045584;28;20226;-63
2023/07/17 04:57:08;;;;;;;12.43;11.48;;;;;;;;;;5047164;28;20704;-63
2023/07/17 04:59:34;;;;;;;13.13;9.95;;;;;;;;;;5046821;28;20239;-64
2023/07/17 05:02:01;;;;;;;11.00;9.95;;;;;;;;;;5045803;28;20199;-64
2023/07/17 05:04:27;;;;;;;16.35;10.88;;;;;;;;;;5046322;28;20669;-63
2023/07/17 05:06:57;;;;;;;11.15;9.35;;;;;;;;;;5046767;28;20219;-63
2023/07/17 05:09:24;;;;;;;12.05;8.57;;;;;;;;;;5046374;28;20199;-65
2023/07/17 05:11:50;;;;;;;11.40;9.23;;;;;;;;;;5046744;28;20202;-65
2023/07/17 05:14:17;;;;;;;8.20;7.70;;;;;;;;;;5046993;28;20242;-64
2023/07/17 05:16:44;;;;;;;8.70;7.75;;;;;;;;;;5046730;28;20235;-64
2023/07/17 05:19:10;;;;;;;14.25;9.35;;;;;;;;;;5046072;28;20692;-62
2023/07/17 05:21:37;;;;;;;9.10;8.40;;;;;;;;;;5046378;28;20772;-63
2023/07/17 05:24:05;;;;;;;12.63;8.85;;;;;;;;;;5045399;28;20914;-63
2023/07/17 05:26:31;;;;;;;14.43;8.85;;;;;;;;;;5046276;28;20641;-63
2023/07/17 05:28:58;;;;;;;8.98;8.02;;;;;;;;;;5046688;28;20207;-63
2023/07/17 05:31:24;;;;;;;11.55;7.80;;;;;;;;;;5046076;28;20203;-63
2023/07/17 05:33:52;;;;;;;7.95;7.20;;;;;;;;;;5046026;28;20258;-64
2023/07/17 05:36:18;;;;;;;7.38;6.88;;;;;;;;;;5046013;28;20210;-64
2023/07/17 05:38:44;;;;;;;7.45;6.75;;;;;;;;;;5046509;28;21521;-63
2023/07/17 05:41:12;;;;;;;7.97;6.97;;;;;;;;;;5045969;28;20237;-63
2023/07/17 05:43:39;;;;;;;7.70;6.88;;;;;;;;;;5046726;28;20195;-63
2023/07/17 05:46:05;;;;;;;9.27;7.47;;;;;;;;;;5046602;28;20253;-63
2023/07/17 05:48:32;;;;;;;8.60;6.93;;;;;;;;;;5045924;28;20292;-63
2023/07/17 05:50:58;;;;;;;9.45;6.95;;;;;;;;;;5050674;28;20304;-63
2023/07/17 05:53:25;;;;;;;7.57;5.90;;;;;;;;;;5050086;28;20219;-64
2023/07/17 05:55:52;;;;;;;7.72;6.25;;;;;;;;;;5049966;28;20195;-63
2023/07/17 05:58:20;;;;;;;10.00;7.03;;;;;;;;;;5050602;28;20203;-63
2023/07/17 06:00:46;;;;;;;7.10;6.40;;;;;;;;;;5049058;28;20250;-64
2023/07/17 06:03:12;;;;;;;7.65;6.00;;;;;;;;;;5049102;28;20335;-65
2023/07/17 06:05:39;;;;;;;10.93;7.60;;;;;;;;;;5050144;28;20230;-64
2023/07/17 06:08:06;;;;;;;7.15;6.65;;;;;;;;;;5049520;28;20296;-64
2023/07/17 06:10:32;;;;;;;8.15;7.07;;;;;;;;;;5049910;28;20202;-64
2023/07/17 06:12:58;;;;;;;9.25;6.22;;;;;;;;;;5049289;28;20203;-64
2023/07/17 06:15:26;;;;;;;14.38;7.18;;;;;;;;;;5050206;28;20231;-64
2023/07/17 06:17:53;;;;;;;7.93;7.20;;;;;;;;;;5047557;28;20235;-65
2023/07/17 06:20:20;;;;;;;7.57;6.28;;;;;;;;;;5047982;28;20261;-66
2023/07/17 06:22:47;;;;;;;11.05;7.18;;;;;;;;;;5047497;28;20203;-64
2023/07/17 06:25:13;;;;;;;8.02;6.72;;;;;;;;;;5047975;28;20195;-66
2023/07/17 06:27:39;;;;;;;7.50;6.28;;;;;;;;;;5048039;28;20227;-65
2023/07/17 06:30:06;;;;;;;6.63;6.05;;;;;;;;;;5048015;28;20310;-64
2023/07/17 06:32:34;;;;;;;8.68;6.78;;;;;;;;;;5046910;28;20199;-65
2023/07/17 06:35:01;;;;;;;7.68;6.70;;;;;;;;;;5048248;28;20341;-65
2023/07/17 06:37:27;;;;;;;9.35;6.47;;;;;;;;;;5046649;28;20206;-65
2023/07/17 06:39:54;;;;;;;7.03;6.40;;;;;;;;;;5048193;28;20203;-64
2023/07/17 06:42:20;;;;;;;8.77;6.45;;;;;;;;;;5047130;28;20211;-65
2023/07/17 06:44:47;;;;;;;6.68;6.25;;;;;;;;;;5047567;28;20248;-65
2023/07/17 06:47:13;;;;;;;6.60;6.05;;;;;;;;;;5047209;28;20631;-66
2023/07/17 06:49:41;;;;;;;7.47;6.18;;;;;;;;;;5048060;28;20202;-66
2023/07/17 06:52:08;;;;;;;9.00;6.35;;;;;;;;;;5047593;28;20222;-65
2023/07/17 06:54:35;;;;;;;8.30;6.40;;;;;;;;;;5048745;28;20218;-65
2023/07/17 06:57:01;;;;;;;8.05;6.55;;;;;;;;;;5049056;28;20234;-66
2023/07/17 06:59:28;;;;;;;9.40;6.32;;;;;;;53.82;nan;95473.81;5049481;28;20234;-65
2023/07/17 07:01:55;;;;;;;6.45;5.85;;;;;;;54.02;nan;95431.63;5048418;28;20198;-66
2023/07/17 07:04:22;;;;;;;8.20;6.82;;;;;;;54.33;nan;95488.66;5048751;28;20264;-66
2023/07/17 07:06:50;;;;;;;7.60;6.85;;;;;;;54.52;nan;95474.72;5048518;28;20660;-65
2023/07/17 07:09:17;;;;;;;7.13;5.72;;;;;;;54.08;nan;95471.16;5048700;28;20271;-64
2023/07/17 07:11:43;;;;;;;7.38;6.78;;;;;;;53.83;nan;95469.97;5049014;28;20596;-65
2023/07/17 07:14:10;;;;;;;6.88;6.25;;;;;;;54.48;nan;95476.50;5047905;28;20250;-65
2023/07/17 07:16:37;;;;;;;14.45;7.38;;;;;;;54.67;nan;95466.13;5048706;28;20264;-65
2023/07/17 07:19:03;;;;;;;8.95;7.22;;;;;;;54.59;nan;95464.19;5047762;28;20198;-70
2023/07/17 07:21:30;;;;;;;7.75;7.10;;;;;;;54.92;nan;95475.41;5047640;28;20781;-65
2023/07/17 07:23:58;;;;;;;14.60;7.72;;;;;;;55.42;nan;95478.34;5036765;28;20248;-67
2023/07/17 07:26:25;;;;;;;10.90;9.93;;;;;;;55.38;nan;95457.50;5044974;28;20207;-65
2023/07/17 07:28:51;;;;;;;9.15;7.47;;;;;;;54.95;nan;95456.47;5048227;28;20707;-67
2023/07/17 07:31:18;;;;;;;8.10;7.38;;;;;;;55.07;nan;95458.53;5047606;28;20314;-66
2023/07/17 07:33:45;;;;;;;8.25;7.72;;;;;;;54.99;nan;95462.88;5048420;28;20222;-68
2023/07/17 07:36:11;;;;;;;11.32;10.30;;;;;;;54.87;nan;95454.59;5048037;28;20221;-75
2023/07/17 07:38:38;;;;;;;11.27;9.05;;;;;;;54.85;nan;95456.00;5048368;28;20264;-73
2023/07/17 07:41:06;;;;;;;20.05;11.98;;;;;;;55.17;nan;95455.50;5047010;28;20246;-74
2023/07/17 07:43:33;;;;;;;9.90;9.00;;;;;;;55.05;nan;95446.38;5048450;28;20214;-74
2023/07/17 07:45:59;;;;;;;15.07;8.95;;;;;;;54.89;nan;95467.88;5047575;28;20299;-72
2023/07/17 07:48:26;;;;;;;10.93;8.52;;;;;;;53.54;nan;95462.31;5048361;28;20639;-71
2023/07/17 07:50:53;;;;;;;10.80;8.05;;;;;;;53.28;nan;95447.84;5047631;28;20198;-69
2023/07/17 07:53:20;;;;;;;8.50;7.47;;;;;;;53.93;nan;95447.16;5048029;28;20218;-72
2023/07/17 07:55:47;;;;;;;9.27;8.35;;;;;;;53.92;nan;95449.06;5047340;28;20225;-72
2023/07/17 07:58:14;;;;;;;9.55;8.02;;;;;;;53.72;nan;95446.91;5047812;28;20704;-72
2023/07/17 08:00:41;;;;;;;9.10;8.18;;;;;;;53.82;nan;95448.53;5047847;28;20662;-72
2023/07/17 08:03:08;;;;;;;9.48;8.57;;;;;;;53.78;nan;95439.41;5047447;28;20656;-74
2023/07/17 08:05:34;;;;;;;8.63;8.15;;;;;;;54.17;nan;95447.50;5047717;28;20199;-73
2023/07/17 08:08:01;;;;;;;9.90;9.02;;;;;;;54.25;nan;95435.84;5047209;28;20206;-72
2023/07/17 08:10:28;;;;;;;12.27;8.85;;;;;;;53.88;nan;95439.13;5047869;28;20260;-72
2023/07/17 08:12:54;;;;;;;9.52;8.60;;;;;;;54.99;nan;95443.81;5047311;28;20210;-75
2023/07/17 08:15:22;;;;;;;8.85;8.32;;;;;;;55.21;nan;95436.56;5047247;28;20317;-73
2023/07/17 08:17:49;;;;;;;10.60;9.25;;;;;;;53.96;nan;95430.19;5045058;28;20210;-72
2023/07/17 08:20:16;;;;;;;9.27;8.70;;;;;;;53.36;nan;95428.06;5045602;28;20285;-71
2023/07/17 08:22:42;;;;;;;10.73;9.40;;;;;;;53.38;nan;95425.03;5045627;28;20268;-72
2023/07/17 08:25:09;;;;;;;11.20;9.95;;;;;;;53.21;nan;95421.09;5045554;28;20198;-74
2023/07/17 08:27:36;;;;;;;10.55;9.70;;;;;;;52.99;nan;95419.22;5044488;28;20688;-73
2023/07/17 08:30:04;;;;;;;11.88;9.38;;;;;;;53.04;nan;95421.00;5045748;28;20237;-71
2023/07/17 08:39:40;;;;;;;9.43;8.63;;;;;;;52.08;15.59;95415.16;5103215;27;20576;-72
2023/07/17 08:42:07;;;;;;;11.98;9.38;;;;;;;51.87;15.70;95415.56;5098908;28;20626;-72
2023/07/17 08:44:35;;;;;;;10.23;9.38;;;;;;;52.69;15.43;95411.84;5099956;28;20633;-72
2023/07/17 08:47:05;;;;;;;11.40;9.50;;;;;;;53.72;14.81;95408.03;5107885;28;20534;-73
2023/07/17 08:49:34;;;;;;;10.13;8.88;;;;;;;54.76;14.55;95419.81;5100797;28;20219;-74
2023/07/17 08:52:03;;;;;;;9.80;9.20;;;;;;;54.35;14.33;95410.25;5098497;28;20224;-73
2023/07/17 08:54:30;;;;;;;10.13;9.25;;;;;;;53.08;15.18;95411.13;5084084;28;20217;-71
2023/07/17 08:57:02;;;;;;;12.35;11.35;;;;;;;53.27;15.77;95408.19;5085521;28;20197;-72
2023/07/17 08:59:30;;;;;;;11.95;10.07;;;;;;;52.84;15.56;95416.88;5085618;28;20270;-72
2023/07/17 09:01:57;;;;;;;11.07;10.02;;;;;;;51.45;16.57;95408.56;5081008;28;20248;-74
2023/07/17 09:04:25;;;;;;;11.32;10.38;;;;;;;50.35;17.18;95404.75;5088761;28;20208;-72
2023/07/17 09:06:52;;;;;;;10.35;9.60;;;;;;;49.97;17.41;95422.84;5084794;28;20212;-71
2023/07/17 09:09:19;;;;;;;12.65;10.30;;;;;;;51.22;16.94;95410.34;5086125;28;20224;-72
2023/07/17 09:11:46;;;;;;;10.77;9.93;;;;;;;50.84;16.77;95420.47;5081988;28;20686;-72
2023/07/17 09:14:14;;;;;;;11.88;10.02;;;;;;;50.04;17.29;95401.66;5098862;28;20194;-73
2023/07/17 09:16:41;;;;;;;11.40;10.40;;;;;;;49.63;17.73;95396.78;5081126;28;20243;-70
2023/07/17 09:19:07;;;;;;;14.48;9.82;;;;;;;49.10;18.03;95395.19;5097898;28;20698;-70
2023/07/17 09:21:34;;;;;;;11.18;10.25;;;;;;;48.83;18.19;95393.78;5081772;28;20942;-72
2023/07/17 09:24:00;;;;;;;10.07;9.38;;;;;;;;;;5093793;28;20197;-70
2023/07/17 09:26:28;;;;;;;13.30;10.10;;;;;;;48.12;nan;95393.50;5095613;28;20589;-71
2023/07/17 09:28:56;;;;;;;10.20;9.48;;;;;;;47.67;nan;95392.66;5082468;28;20201;-71
2023/07/17 09:31:25;;;;;;;16.38;9.70;;;;;;;46.88;nan;95391.47;5086172;28;20285;-70
2023/07/17 09:33:52;;;;;;;10.50;9.63;;;;;;;47.36;nan;95390.03;5081636;28;20209;-72
2023/07/17 09:36:19;;;;;;;10.02;9.02;;;;;;;47.07;nan;95379.09;5081852;28;20198;-71
2023/07/17 09:38:50;;;;;;;10.10;8.88;;;;;;;46.01;nan;95374.50;5065843;28;20303;-71
2023/07/17 09:41:18;;;;;;;11.95;9.73;;;;;;;45.50;nan;95376.16;5054839;28;20202;-70
2023/07/17 09:43:52;;;;;;;11.00;9.55;;;;;;;44.67;nan;95373.22;5064657;28;20697;-75
2023/07/17 09:46:20;;;;;;;10.20;9.20;;;;;;;43.22;nan;95376.75;5060317;28;20218;-71
2023/07/17 09:48:50;;;;;;;10.82;9.93;;;;;;;41.97;nan;95383.22;5057702;28;20668;-73
2023/07/17 09:51:18;;;;;;;11.75;10.10;;;;;;;41.02;nan;95373.81;5045644;28;20732;-70
2023/07/17 09:53:46;;;;;;;10.95;9.80;;;;;;;39.91;nan;95387.00;5048506;28;20203;-71
2023/07/17 09:56:16;;;;;;;9.93;9.10;;;;;;;38.63;nan;95373.63;5050556;28;20219;-71
2023/07/17 09:58:47;;;;;;;10.85;9.65;;;;;;;37.47;nan;95395.09;5046785;28;20214;-70
2023/07/17 10:01:18;;;;;;;9.40;8.60;;;;;;;36.90;nan;95388.69;5050697;28;20681;-70
2023/07/17 10:03:50;;;;;;;9.30;8.45;;;;;;;36.55;nan;95389.94;5047754;28;20199;-70
2023/07/17 10:06:19;;;;;;;8.95;8.10;;;;;;;;;;5045347;28;20198;-73
2023/07/17 10:08:46;;;;;;;11.20;9.45;;;;;;;;;;5046088;28;20283;-71
2023/07/17 10:11:14;;;;;;;11.27;9.10;;;;;;;;;;5052675;28;20685;-69
2023/07/17 10:13:41;;;;;;;10.02;9.10;;;;;;;;;;5045732;28;20210;-69
2023/07/17 10:16:07;;;;;;;9.73;9.02;;;;;;;;;;5052195;28;20673;-69
2023/07/17 10:18:34;;;;;;;9.55;8.65;;;;;;;;;;5043588;28;20215;-71
2023/07/17 10:21:04;;;;;;;9.23;8.52;;;;;;;34.76;nan;95381.28;5044845;28;20664;-72
2023/07/17 10:23:31;;;;;;;8.98;7.90;;;;;;;;;;5048682;28;20714;-70
2023/07/17 10:26:08;;;;;;;7.35;6.70;;;;;;;34.47;nan;95374.34;5043964;28;20206;-72
2023/07/17 10:28:35;;;;;;;8.07;7.50;;;;;;;;;;5046677;28;20673;-70
2023/07/17 10:31:09;;;;;;;7.78;7.18;;;;;;;;;;5048390;28;20248;-71
2023/07/17 10:33:39;;;;;;;7.97;7.35;;;;;;;;;;5042694;28;20292;-72
2023/07/17 10:36:06;;;;;;;8.38;7.75;;;;;;;;;;5043728;28;20288;-71
2023/07/17 10:38:35;;;;;;;8.70;7.47;;;;;;;;;;5046036;28;20238;-73
2023/07/17 10:41:03;;;;;;;7.75;7.15;;;;;;;;;;5049889;28;20203;-71
2023/07/17 10:43:29;;;;;;;7.22;6.72;;;;;;;;;;5047300;28;20218;-70
2023/07/17 10:45:56;;;;;;;7.75;6.65;;;;;;;;;;5043495;28;20266;-70
2023/07/17 10:48:25;;;;;;;7.65;7.07;;;;;;;;;;5046735;28;20225;-70
2023/07/17 10:50:53;;;;;;;7.47;6.85;;;;;;;;;;5047172;28;20199;-71
2023/07/17 10:53:19;;;;;;;7.82;7.28;;;;;;;;;;5044548;28;20348;-70
2023/07/17 10:55:47;;;;;;;7.20;6.57;;;;;;;;;;5044306;28;20218;-71
2023/07/17 10:58:14;;;;;;;7.57;7.07;;;;;;;;;;5050056;28;20246;-69
2023/07/17 11:00:41;;;;;;;8.07;7.38;;;;;;;;;;5045426;28;20218;-69
2023/07/17 11:03:07;;;;;;;8.57;7.45;;;;;;;;;;5043641;28;20694;-70
2023/07/17 11:05:37;;;;;;;7.65;7.05;;;;;;;;;;5048115;28;20261;-71
2023/07/17 11:08:03;;;;;;;8.60;7.45;;;;;;;;;;5049020;28;20265;-69
2023/07/17 11:10:30;;;;;;;7.13;6.63;;;;;;;;;;5043446;28;20208;-70
2023/07/17 11:13:01;;;;;;;8.73;6.57;;;;;;;;;;5052194;28;20195;-71
2023/07/17 11:15:27;;;;;;;6.95;6.45;;;;;;;;;;5044002;28;20300;-69
2023/07/17 11:17:54;;;;;;;7.82;7.00;;;;;;;;;;5052657;28;20199;-70
2023/07/17 11:20:20;;;;;;;7.90;7.15;;;;;;;;;;5043626;28;20207;-70
2023/07/17 11:22:47;;;;;;;7.95;6.78;;;;;;;;;;5048219;28;20199;-72
2023/07/17 11:25:13;;;;;;;8.38;7.78;;;;;;;;;;5046574;28;20711;-72
2023/07/17 11:27:41;;;;;;;8.25;7.43;;;;;;;;;;5043888;28;20202;-72
2023/07/17 11:30:18;;;;;;;7.93;7.32;;;;;;;;;;5045494;28;20203;-70
2023/07/17 11:32:45;;;;;;;7.93;7.15;;;;;;;;;;5049600;28;20198;-76
2023/07/17 11:35:12;;;;;;;7.97;7.38;;;;;;;;;;5043849;28;20752;-69
2023/07/17 11:37:40;;;;;;;8.30;7.60;;;;;;;;;;5047288;28;20249;-70
2023/07/17 11:40:08;;;;;;;7.80;7.20;;;;;;;;;;5068677;28;20253;-71
2023/07/17 11:42:49;;;;;;;7.72;6.93;;;;;;;;;;5070302;28;20201;-72
2023/07/17 11:45:15;;;;;;;8.05;6.85;;;;;;;;;;5068435;28;20690;-70
2023/07/17 11:47:45;;;;;;;6.80;6.07;;;;;;;;;;5070446;28;20295;-72
2023/07/17 11:50:11;;;;;;;6.63;6.13;;;;;;;;;;5069773;28;20226;-69
2023/07/17 11:52:38;;;;;;;9.93;6.78;;;;;;;;;;5069302;28;20747;-70
2023/07/17 11:55:04;;;;;;;10.63;6.85;;;;;;;;;;5077538;28;20202;-69
2023/07/17 11:57:31;;;;;;;6.95;6.45;;;;;;;;;;5077991;28;20271;-70
2023/07/17 12:00:01;;;;;;;7.22;6.43;;;;;;;;;;5072972;28;20740;-69
2023/07/17 12:02:28;;;;;;;6.65;6.22;;;;;;;;;;5072707;28;20293;-72
2023/07/17 12:05:00;;;;;;;5.70;5.20;;;;;;;;;;5072095;28;20232;-72
2023/07/17 12:07:27;;;;;;;6.90;6.20;;;;;;;;;;5067935;28;20267;-70
2023/07/17 12:09:53;;;;;;;7.60;7.00;;;;;;;;;;5075178;28;20277;-70
2023/07/17 12:12:20;;;;;;;7.75;7.10;;;;;;;;;;5068863;28;20195;-72
2023/07/17 12:14:46;;;;;;;7.07;6.50;;;;;;;;;;5067527;28;21015;-75
2023/07/17 12:17:13;;;;;;;8.80;6.60;;;;;;;;;;5070133;28;20281;-68
2023/07/17 12:19:40;;;;;;;6.68;6.22;;;;;;;;;;5066338;28;20233;-72
2023/07/17 12:22:08;;;;;;;6.88;6.22;;;;;;;;;;5077531;28;20756;-72
2023/07/17 12:24:34;;;;;;;7.13;6.43;;;;;;;;;;5071915;28;20193;-72
2023/07/17 12:27:02;;;;;;;8.00;7.25;;;;;;;;;;5065483;28;20201;-71
2023/07/17 12:29:28;;;;;;;7.60;6.22;;;;;;;;;;5072887;28;20214;-71
2023/07/17 12:31:54;;;;;;;8.05;7.32;;;;;;;;;;5072160;28;20251;-73
2023/07/17 12:34:21;;;;;;;7.47;6.97;;;;;;;;;;5067982;28;20240;-71
2023/07/17 12:40:02;;;;;;;7.90;7.18;;;;;;;;;;5113259;27;20554;-72
2023/07/17 12:42:28;;;;;;;7.22;6.72;;;;;;;;;;5105412;28;20217;-71
2023/07/17 12:44:55;;;;;;;6.72;6.32;;;;;;;;;;5096598;28;20201;-71
2023/07/17 12:47:22;;;;;;;6.55;6.15;;;;;;;;;;5106799;28;20197;-71
2023/07/17 12:49:49;;;;;;;7.07;6.45;;;;;;;32.94;nan;95285.91;5100554;28;20228;-71
2023/07/17 12:52:15;;;;;;;7.53;7.03;;;;;;;;;;5106878;28;20309;-73
2023/07/17 12:54:42;;;;;;;8.10;7.50;;;;;;;;;;5090751;28;20209;-70
2023/07/17 12:57:10;;;;;;;7.35;6.72;;;;;;;;;;5108175;28;20197;-75
2023/07/17 12:59:36;;;;;;;11.40;8.05;;;;;;;;;;5086400;28;20226;-71
2023/07/17 13:02:03;;;;;;;7.43;6.88;;;;;;;;;;5106355;28;20352;-74
2023/07/17 13:04:29;;;;;;;7.88;7.18;;;;;;;;;;5099943;28;20208;-71
2023/07/17 13:06:56;;;;;;;8.02;6.75;;;;;;;;;;5102802;28;20229;-75
2023/07/17 13:09:23;;;;;;;7.20;6.70;;;;;;;;;;5100742;28;20198;-74
2023/07/17 13:11:49;;;;;;;9.30;6.85;;;;;;;;;;5106346;28;20200;-73
2023/07/17 13:14:17;;;;;;;7.00;6.20;;;;;;;33.33;nan;95266.34;5104241;28;20216;-71
2023/07/17 13:16:44;;;;;;;8.02;6.20;;;;;;;33.28;nan;95251.09;5105944;28;20731;-72
2023/07/17 13:19:11;;;;;;;7.75;6.57;;;;;;;33.42;nan;95254.66;5103983;28;20205;-73
2023/07/17 13:21:37;;;;;;;8.63;6.53;;;;;;;;;;5106636;28;20227;-73
2023/07/17 13:24:04;;;;;;;7.05;6.45;;;;;;;;;;5104234;28;20197;-72
2023/07/17 13:26:34;;;;;;;7.28;6.68;;;;;;;33.74;nan;95256.00;5101801;28;20205;-73
2023/07/17 13:29:03;;;;;;;6.97;6.55;;;;;;;;;;5093918;28;20280;-73
2023/07/17 13:31:31;;;;;;;7.47;6.88;;;;;;;;;;5103673;28;20255;-71
2023/07/17 13:33:57;;;;;;;7.40;6.72;;;;;;;;;;5107355;28;20228;-73
2023/07/17 13:36:24;;;;;;;6.97;6.40;;;;;;;;;;5103383;28;20250;-71
2023/07/17 13:38:50;;;;;;;8.45;7.78;;;;;;;;;;5100049;28;20313;-73
2023/07/17 13:41:20;;;;;;;7.10;6.60;;;;;;;;;;5101807;28;20209;-72
2023/07/17 13:43:46;;;;;;;7.30;6.80;;;;;;;;;;5104043;28;20270;-73
2023/07/17 13:46:12;;;;;;;7.78;6.93;;;;;;;;;;5105622;28;20197;-72
2023/07/17 13:48:40;;;;;;;7.78;7.18;;;;;;;;;;5098621;28;20193;-73
2023/07/17 13:51:07;;;;;;;7.80;7.20;;;;;;;;;;5089285;28;20206;-74
2023/07/17 13:53:33;;;;;;;7.68;7.05;;;;;;;;;;5088352;28;20229;-74
2023/07/17 13:56:00;;;;;;;9.68;7.90;;;;;;;;;;5092203;28;20760;-71